Time;durP1;ratioP1;P1;durP2;ratioP2;P2;SDS_P1;SDS_P2;PMS_P1;PMS_P2;Temp;Humidity;BMP_temperature;BMP_pressure;BME280_temperature;BME280_humidity;BME280_pressure;Samples;Min_cycle;Max_cycle;Signal;HPM_P1;HPM_P2
2022/03/18 05:57:17;;;;;;;13.75;4.63;;;;;;;1.56;100.00;102614.41;6187893;23;20024;31
2022/03/18 05:59:43;;;;;;;14.95;5.53;;;;;;;1.58;100.00;102614.25;6157586;23;20482;-71
2022/03/18 06:02:10;;;;;;;17.92;5.82;;;;;;;1.58;100.00;102622.47;6134840;23;20410;-71
2022/03/18 06:04:35;;;;;;;18.13;6.97;;;;;;;1.59;100.00;102626.91;6160455;23;20005;-71
2022/03/18 06:07:04;;;;;;;17.33;6.65;;;;;;;1.57;100.00;102629.84;6161007;23;20014;-71
2022/03/18 06:12:13;;;;;;;17.33;6.07;;;;;;;1.62;100.00;102626.56;6159594;23;20014;-71
2022/03/18 06:14:39;;;;;;;16.20;5.05;;;;;;;1.66;100.00;102628.72;6158643;23;20005;-72
2022/03/18 06:17:05;;;;;;;20.95;6.43;;;;;;;1.68;100.00;102637.63;6159097;23;20013;-72
2022/03/18 06:19:31;;;;;;;15.32;5.82;;;;;;;1.73;100.00;102642.56;6134354;23;20017;-72
2022/03/18 06:21:57;;;;;;;13.32;4.82;;;;;;;1.75;100.00;102633.09;6134698;23;20017;-72
2022/03/18 06:24:22;;;;;;;15.98;5.15;;;;;;;1.79;100.00;102631.72;6134163;23;20009;-71
2022/03/18 06:26:49;;;;;;;17.67;6.40;;;;;;;1.78;100.00;102640.09;6158671;23;20050;-72
2022/03/18 06:29:14;;;;;;;15.07;7.03;;;;;;;1.76;100.00;102645.78;6134075;23;20025;-71
2022/03/18 06:31:40;;;;;;;20.60;6.72;;;;;;;1.76;100.00;102639.47;6134081;23;20010;-71
2022/03/18 06:34:06;;;;;;;17.33;6.10;;;;;;;1.79;100.00;102637.19;6160880;23;20005;-71
2022/03/18 06:36:31;;;;;;;20.25;6.57;;;;;;;1.77;100.00;102632.94;6163135;23;20009;-71
2022/03/18 06:38:57;;;;;;;19.20;6.28;;;;;;;1.83;100.00;102634.94;6134158;23;20010;-72
2022/03/18 06:41:23;;;;;;;15.18;6.55;;;;;;;1.84;100.00;102642.13;6158918;23;20009;-72
2022/03/18 06:43:49;;;;;;;17.50;7.43;;;;;;;1.85;100.00;102640.25;6158426;23;20014;-72
2022/03/18 06:46:15;;;;;;;18.05;7.65;;;;;;;1.87;100.00;102635.44;6134140;23;20009;-72
2022/03/18 06:48:41;;;;;;;22.33;7.30;;;;;;;1.88;100.00;102629.75;6134259;23;20009;-72
2022/03/18 06:51:07;;;;;;;26.35;8.75;;;;;;;1.94;100.00;102634.50;6160238;23;20001;-72
2022/03/18 06:53:33;;;;;;;25.55;8.88;;;;;;;1.99;100.00;102637.53;6134147;23;20013;-71
2022/03/18 06:55:58;;;;;;;27.20;8.90;;;;;;;2.09;100.00;102639.16;6109589;23;20013;-71
2022/03/18 06:58:24;;;;;;;19.15;8.82;;;;;;;2.15;100.00;102644.75;6150308;23;20084;-71
2022/03/18 07:00:49;;;;;;;23.35;8.48;;;;;;;2.24;100.00;102642.78;6139882;23;20009;-71
2022/03/18 07:03:16;;;;;;;21.65;8.27;;;;;;;2.31;100.00;102649.22;6168453;23;20009;-71
2022/03/18 07:05:41;;;;;;;23.67;8.93;;;;;;;2.43;100.00;102644.13;6140090;23;20011;-73
2022/03/18 07:08:09;;;;;;;13.35;6.68;;;;;;;2.54;100.00;102651.06;6163787;23;20041;-78
2022/03/18 07:10:52;;;;;;;19.52;7.18;;;;;;;2.68;100.00;102647.47;6138941;23;20009;-79
2022/03/18 07:13:38;;;;;;;14.75;6.25;;;;;;;2.85;100.00;102646.22;6138541;23;20013;-79
2022/03/18 07:18:57;;;;;;;;;;;;;;;3.17;100.00;102637.75;6142739;23;20021;-77
2022/03/18 07:21:22;;;;;;;15.98;6.07;;;;;;;3.29;100.00;102634.31;6139127;23;19954;-74
2022/03/18 07:23:48;;;;;;;21.42;8.48;;;;;;;3.39;100.00;102631.22;6189556;23;20009;-77
2022/03/18 07:26:14;;;;;;;20.95;8.23;;;;;;;3.47;100.00;102630.25;6188590;23;20055;-67
2022/03/18 07:28:39;;;;;;;18.83;8.70;;;;;;;3.58;100.00;102629.75;6191280;23;20005;-68
2022/03/18 07:31:05;;;;;;;27.15;9.52;;;;;;;3.69;100.00;102620.97;6194421;23;20064;-68
2022/03/18 07:33:30;;;;;;;19.75;8.55;;;;;;;3.84;100.00;102631.03;6190217;23;20056;-68
2022/03/18 07:35:56;;;;;;;24.00;9.32;;;;;;;4.00;100.00;102628.03;6188120;23;20009;-68
2022/03/18 07:38:22;;;;;;;22.50;10.20;;;;;;;4.12;100.00;102628.31;6163225;23;20035;-68
2022/03/18 07:40:47;;;;;;;24.90;10.60;;;;;;;4.25;100.00;102640.28;6138735;23;20005;-68
2022/03/18 07:43:13;;;;;;;22.80;9.73;;;;;;;4.36;100.00;102633.38;6163245;23;20013;-68
2022/03/18 07:45:38;;;;;;;22.33;9.82;;;;;;;4.55;100.00;102629.06;6138719;23;20427;-72
2022/03/18 07:48:05;;;;;;;22.60;9.35;;;;;;;4.75;100.00;102628.34;6187748;23;20005;-70
2022/03/18 07:50:32;;;;;;;25.08;11.15;;;;;;;4.86;100.00;102636.00;6183249;23;20009;-70
2022/03/18 07:53:08;;;;;;;26.77;10.07;;;;;;;5.01;100.00;102633.09;6163384;23;20009;-70
2022/03/18 07:55:35;;;;;;;20.77;10.30;;;;;;;5.19;100.00;102636.16;6188963;23;20048;-70
2022/03/18 07:58:00;;;;;;;20.17;9.80;;;;;;;5.37;100.00;102641.06;6192243;23;20378;-70
2022/03/18 08:00:26;;;;;;;25.30;11.82;;;;;;;5.50;100.00;102627.34;6164468;23;20016;-70
2022/03/18 08:02:52;;;;;;;26.10;11.00;;;;;;;5.66;100.00;102637.13;6163070;23;20040;-70
2022/03/18 08:05:18;;;;;;;25.33;10.65;;;;;;;5.83;100.00;102640.34;6162960;23;20350;-70
2022/03/18 08:07:46;;;;;;;23.42;11.05;;;;;;;5.99;100.00;102631.69;6138001;23;20122;-70
2022/03/18 08:10:12;;;;;;;24.98;11.45;;;;;;;6.14;100.00;102644.41;6163731;23;20374;-70
2022/03/18 08:12:38;;;;;;;26.23;10.75;;;;;;;6.25;100.00;102646.53;6162656;23;20005;-70
2022/03/18 08:15:06;;;;;;;25.30;10.73;;;;;;;6.36;100.00;102643.13;6187910;23;20013;-69
2022/03/18 08:17:31;;;;;;;20.98;10.65;;;;;;;6.45;100.00;102641.84;6163286;23;20005;-69
2022/03/18 08:19:57;;;;;;;21.73;10.55;;;;;;;6.59;100.00;102644.56;6138462;23;20008;-71
2022/03/18 08:22:23;;;;;;;20.05;10.05;;;;;;;6.69;100.00;102637.56;6138426;23;20067;-72
2022/03/18 08:24:48;;;;;;;25.20;10.25;;;;;;;6.79;100.00;102650.06;6167136;23;20422;-71
2022/03/18 08:27:14;;;;;;;23.88;8.35;;;;;;;7.03;100.00;102640.22;6165287;23;20019;-72
2022/03/18 08:29:40;;;;;;;17.75;8.05;;;;;;;7.21;95.89;102651.38;6162820;23;20064;-72
2022/03/18 08:32:07;;;;;;;17.60;7.18;;;;;;;7.36;93.99;102637.28;6187422;23;20009;-72
2022/03/18 08:34:32;;;;;;;16.45;7.35;;;;;;;7.49;94.27;102647.41;6187755;23;20470;-72
2022/03/18 08:36:58;;;;;;;19.65;7.65;;;;;;;7.57;92.40;102655.44;6162767;23;20013;-73
2022/03/18 08:39:24;;;;;;;14.63;7.53;;;;;;;7.72;92.97;102647.72;6187567;23;20019;-72
2022/03/18 08:41:50;;;;;;;17.77;7.43;;;;;;;7.80;90.17;102650.22;6162619;23;20005;-72
2022/03/18 08:44:19;;;;;;;19.95;6.57;;;;;;;7.95;88.97;102655.41;6137831;23;20055;-72
2022/03/18 08:46:46;;;;;;;13.93;5.97;;;;;;;8.01;84.90;102659.22;6162622;23;20012;-71
2022/03/18 08:49:11;;;;;;;12.07;5.70;;;;;;;8.06;83.79;102659.38;6162849;23;20004;-71
2022/03/18 08:51:37;;;;;;;11.27;5.10;;;;;;;8.08;83.78;102657.25;6165688;23;20012;-72
2022/03/18 08:54:03;;;;;;;10.68;4.90;;;;;;;8.21;80.45;102650.75;6142191;23;20015;-72
2022/03/18 08:56:28;;;;;;;10.55;5.18;;;;;;;8.28;79.28;102652.38;6138060;23;20013;-72
2022/03/18 08:58:54;;;;;;;12.88;5.00;;;;;;;8.37;78.32;102660.41;6162194;23;20017;-72
2022/03/18 09:01:19;;;;;;;10.90;4.50;;;;;;;8.43;76.86;102651.22;6187289;23;20008;-72
2022/03/18 09:03:45;;;;;;;14.82;4.43;;;;;;;8.52;75.34;102657.31;6162791;23;20020;-72
2022/03/18 09:06:11;;;;;;;9.48;3.97;;;;;;;8.57;72.56;102660.25;6162943;23;20020;-71
2022/03/18 09:08:37;;;;;;;12.63;3.90;;;;;;;8.60;71.35;102660.63;6162758;23;20012;-71
2022/03/18 09:11:03;;;;;;;6.43;3.50;;;;;;;8.57;69.40;102668.56;6161997;23;20009;-71
2022/03/18 09:13:28;;;;;;;9.50;4.03;;;;;;;8.49;70.79;102666.91;6162345;23;20016;-71
2022/03/18 09:15:54;;;;;;;8.00;3.88;;;;;;;8.61;71.32;102659.56;6137849;23;20013;-71
2022/03/18 09:18:21;;;;;;;8.82;3.30;;;;;;;8.78;71.30;102667.28;6188810;23;20320;-71
2022/03/18 09:20:47;;;;;;;7.82;3.38;;;;;;;8.88;68.91;102676.75;6167227;23;20005;-71
2022/03/18 09:23:14;;;;;;;8.35;3.33;;;;;;;8.92;67.49;102663.28;6163857;23;20012;-71
2022/03/18 09:25:39;;;;;;;12.35;3.45;;;;;;;9.02;66.86;102663.56;6162542;23;20043;-71
2022/03/18 09:28:05;;;;;;;10.80;3.25;;;;;;;9.11;67.33;102659.44;6187143;23;20009;-71
2022/03/18 09:30:30;;;;;;;10.32;3.30;;;;;;;9.28;63.18;102661.59;6137837;23;20009;-71
2022/03/18 09:32:56;;;;;;;8.82;3.25;;;;;;;9.32;63.72;102651.69;6137848;23;20382;-71
2022/03/18 09:35:23;;;;;;;8.30;3.30;;;;;;;9.37;63.92;102649.09;6162562;23;20013;-71
2022/03/18 09:37:48;;;;;;;9.38;2.80;;;;;;;9.44;61.75;102648.97;6138311;23;20009;-71
2022/03/18 09:40:14;;;;;;;5.07;2.60;;;;;;;9.53;61.35;102658.69;6162576;23;20001;-71
2022/03/18 09:43:05;;;;;;;8.13;2.55;;;;;;;9.60;57.97;102648.31;6187076;23;20009;-71
2022/03/18 09:45:33;;;;;;;12.63;2.95;;;;;;;9.58;57.43;102665.22;6163241;23;20032;-71
2022/03/18 09:47:59;;;;;;;7.05;2.20;;;;;;;9.65;57.10;102650.41;6142262;23;20008;-71
2022/03/18 09:50:26;;;;;;;8.45;2.67;;;;;;;9.70;57.49;102658.88;6139397;23;20128;-71
2022/03/18 09:52:52;;;;;;;9.93;2.70;;;;;;;9.73;56.55;102648.13;6162561;23;20009;-71
2022/03/18 09:55:17;;;;;;;9.70;2.83;;;;;;;9.87;58.18;102639.63;6187218;23;20040;-71
2022/03/18 09:57:43;;;;;;;12.32;2.90;;;;;;;9.92;55.67;102642.50;6161645;23;20063;-72
2022/03/18 10:00:09;;;;;;;7.28;2.42;;;;;;;9.95;55.31;102647.59;6162276;23;20013;-71
2022/03/18 10:02:35;;;;;;;9.85;2.42;;;;;;;10.07;55.73;102649.28;6161886;23;20019;-71
2022/03/18 10:05:01;;;;;;;6.80;2.53;;;;;;;10.11;53.24;102644.09;6187190;23;20005;-71
2022/03/18 10:07:28;;;;;;;5.88;2.60;;;;;;;10.14;54.00;102645.56;6137629;23;20063;-71
2022/03/18 10:10:15;;;;;;;9.30;2.53;;;;;;;10.04;52.97;102655.34;6188509;23;20064;-71
2022/03/18 10:12:42;;;;;;;5.18;2.00;;;;;;;10.16;51.50;102646.19;6163147;23;20016;-72
2022/03/18 10:15:13;;;;;;;12.30;2.50;;;;;;;10.20;51.78;102651.03;6168155;23;20048;-73
2022/03/18 10:17:46;;;;;;;6.80;2.88;;;;;;;10.23;52.04;102660.81;6165798;23;20009;-78
2022/03/18 10:20:45;;;;;;;5.75;2.40;;;;;;;10.30;52.27;102647.66;6113711;23;20036;-79
2022/03/18 10:23:16;;;;;;;5.55;2.53;;;;;;;10.33;52.03;102638.84;6165090;23;20009;-77
2022/03/18 10:25:51;;;;;;;8.35;3.20;;;;;;;10.39;52.90;102637.03;6190221;23;20020;-74
2022/03/18 10:28:46;;;;;;;8.32;2.50;;;;;;;10.48;54.72;102638.41;6189946;23;20092;-71
2022/03/18 10:31:13;;;;;;;6.35;2.83;;;;;;;10.56;55.28;102635.25;6133789;23;20009;-71
2022/03/18 10:37:06;;;;;;;3.75;2.47;;;;;;;10.78;52.49;102627.13;6143005;23;20402;-78
2022/03/18 10:39:45;;;;;;;6.38;2.67;;;;;;;10.91;53.04;102620.44;6163866;23;20009;-77
2022/03/18 10:42:12;;;;;;;8.15;2.80;;;;;;;11.03;52.03;102628.75;6192481;23;20009;-72
2022/03/18 10:44:59;;;;;;;13.45;2.92;;;;;;;11.06;50.20;102628.25;6190853;23;20035;-74
2022/03/18 10:47:31;;;;;;;10.32;3.38;;;;;;;11.08;48.64;102628.88;6190012;23;20068;-73
2022/03/18 10:50:11;;;;;;;7.47;2.97;;;;;;;11.06;48.93;102628.25;6189894;23;20016;-73
2022/03/18 10:52:38;;;;;;;6.95;3.25;;;;;;;11.10;49.05;102619.19;6190453;23;20009;-74
2022/03/18 10:55:17;;;;;;;8.80;2.97;;;;;;;11.07;48.45;102614.13;6163409;23;20092;-74
2022/03/18 10:57:59;;;;;;;6.72;3.20;;;;;;;11.10;48.85;102607.22;6189490;23;20017;-76
2022/03/18 11:00:26;;;;;;;6.90;2.92;;;;;;;11.12;48.24;102616.19;6163610;23;20015;-74
2022/03/18 11:03:01;;;;;;;6.45;2.75;;;;;;;11.15;48.03;102607.34;6163375;23;20067;-78
2022/03/18 11:05:39;;;;;;;8.98;3.30;;;;;;;11.15;47.71;102610.97;6134633;23;20079;-78
2022/03/18 11:08:16;;;;;;;7.53;3.13;;;;;;;11.11;47.12;102600.56;6165349;23;20451;-78
2022/03/18 11:25:26;;;;;;;7.70;2.95;;;;;;;11.21;48.21;102580.47;6095752;23;20010;-76
2022/03/18 11:27:52;;;;;;;6.82;2.95;;;;;;;11.33;48.21;102586.81;6073954;23;20021;-70
2022/03/18 11:30:19;;;;;;;7.97;3.42;;;;;;;11.24;48.63;102586.38;6050227;23;20036;-72
2022/03/18 11:33:06;;;;;;;8.10;3.22;;;;;;;11.26;49.65;102584.22;6097633;23;20022;-71
2022/03/18 11:35:50;;;;;;;5.78;3.00;;;;;;;11.26;48.40;102575.88;6079034;23;20022;-71
2022/03/18 11:38:16;;;;;;;8.95;3.00;;;;;;;11.24;50.07;102575.25;6100079;23;20093;-71
2022/03/18 11:41:02;;;;;;;9.52;3.85;;;;;;;11.29;51.21;102566.19;6050646;23;20009;-71
2022/03/18 11:43:48;;;;;;;6.72;3.20;;;;;;;11.31;49.36;102559.28;6003174;23;20105;-71
2022/03/18 11:46:13;;;;;;;7.75;3.55;;;;;;;11.39;50.27;102550.53;6104598;23;20006;-71
2022/03/18 11:48:57;;;;;;;9.25;3.55;;;;;;;11.45;50.12;102542.25;6127221;23;20029;-71
2022/03/18 11:51:32;;;;;;;8.25;4.10;;;;;;;11.52;49.76;102549.34;6104155;23;20069;-72
2022/03/18 11:54:27;;;;;;;9.05;3.55;;;;;;;11.44;48.72;102549.75;6105371;23;20081;-72
2022/03/18 11:56:57;;;;;;;6.53;3.38;;;;;;;11.52;48.11;102535.44;6144364;23;20075;-71
2022/03/18 11:59:27;;;;;;;8.98;3.50;;;;;;;11.64;49.81;102532.56;6187418;23;20394;-71
2022/03/18 12:02:09;;;;;;;6.00;2.75;;;;;;;11.71;47.60;102538.00;6191217;23;20009;-70
2022/03/18 12:04:38;;;;;;;5.78;2.60;;;;;;;11.75;49.77;102526.09;6166732;23;20016;-71
2022/03/18 12:07:06;;;;;;;5.35;2.88;;;;;;;11.87;48.16;102528.84;6187990;23;20071;-69
2022/03/18 12:10:09;;;;;;;7.15;3.35;;;;;;;11.85;48.55;102512.38;6187579;23;20009;-71
2022/03/18 12:12:37;;;;;;;6.95;3.00;;;;;;;11.94;47.84;102509.16;6155935;23;20052;-70
2022/03/18 12:15:17;;;;;;;6.88;2.90;;;;;;;11.98;47.87;102499.19;6163161;23;20005;-70
2022/03/18 12:17:53;;;;;;;6.30;2.63;;;;;;;12.04;46.24;102500.97;6162955;23;20300;-71
2022/03/18 12:20:20;;;;;;;7.03;2.67;;;;;;;12.14;50.06;102497.47;6138266;23;20005;-71
2022/03/18 12:22:47;;;;;;;5.78;2.80;;;;;;;12.16;47.81;102487.78;6162937;23;20030;-70
2022/03/18 12:25:12;;;;;;;6.75;2.92;;;;;;;12.14;46.93;102483.56;6189251;23;20004;-71
2022/03/18 12:27:39;;;;;;;6.15;2.90;;;;;;;12.11;47.27;102481.28;6163343;23;20441;-70
2022/03/18 12:30:09;;;;;;;4.10;2.20;;;;;;;12.23;46.17;102477.28;6167490;23;20005;-70
2022/03/18 12:32:38;;;;;;;6.07;2.55;;;;;;;12.36;45.76;102478.84;6188567;23;20009;-70
2022/03/18 12:35:04;;;;;;;5.18;2.20;;;;;;;12.46;47.39;102475.38;6161351;23;20005;-70
2022/03/18 12:37:31;;;;;;;5.38;2.20;;;;;;;12.42;45.09;102474.19;6162838;23;20025;-70
2022/03/18 12:40:11;;;;;;;4.60;2.35;;;;;;;12.36;44.71;102466.88;6162897;23;20090;-70
2022/03/18 12:42:50;;;;;;;4.78;2.60;;;;;;;12.35;44.33;102463.25;6162930;23;20005;-70
2022/03/18 12:45:31;;;;;;;7.60;2.22;;;;;;;12.43;45.29;102459.16;6187943;23;20088;-70
2022/03/18 12:48:07;;;;;;;4.07;2.05;;;;;;;12.40;43.94;102459.69;6163016;23;20009;-71
2022/03/18 12:50:38;;;;;;;5.38;2.50;;;;;;;12.46;42.95;102464.22;6162778;23;20028;-70
2022/03/18 12:53:11;;;;;;;7.18;2.40;;;;;;;12.43;43.80;102448.03;6138355;23;20071;-71
2022/03/18 12:55:36;;;;;;;3.30;2.28;;;;;;;12.45;43.03;102446.66;6165047;23;20009;-69
2022/03/18 12:58:04;;;;;;;6.05;2.33;;;;;;;12.48;43.95;102435.00;6191311;23;20028;-70
2022/03/18 13:00:39;;;;;;;8.18;2.00;;;;;;;12.57;44.97;102442.91;6187561;23;20446;-70
2022/03/18 13:03:20;;;;;;;3.97;1.85;;;;;;;12.59;43.16;102446.25;6138226;23;20449;-69
2022/03/18 13:05:46;;;;;;;5.03;2.03;;;;;;;12.63;41.97;102430.69;6138122;23;20009;-70
2022/03/18 13:08:16;;;;;;;7.25;2.25;;;;;;;12.66;41.74;102441.31;6162534;23;20016;-70
2022/03/18 13:10:42;;;;;;;4.05;2.30;;;;;;;12.64;40.09;102427.63;6162478;23;20068;-70
2022/03/18 13:13:13;;;;;;;6.03;2.13;;;;;;;12.68;41.31;102426.03;6187130;23;20016;-70
2022/03/18 13:15:48;;;;;;;6.60;2.30;;;;;;;12.74;42.25;102426.91;6138321;23;20004;-70
2022/03/18 13:18:15;;;;;;;3.50;2.08;;;;;;;12.69;43.25;102424.06;6164376;23;20015;-71
2022/03/18 13:20:41;;;;;;;3.97;1.75;;;;;;;12.70;41.81;102412.66;6163035;23;20001;-71
2022/03/18 13:23:07;;;;;;;4.85;2.38;;;;;;;12.69;41.59;102422.13;6165362;23;20032;-71
2022/03/18 13:25:37;;;;;;;4.47;2.17;;;;;;;12.56;40.49;102408.56;6165902;23;20016;-71
2022/03/18 13:28:05;;;;;;;4.93;2.35;;;;;;;12.62;41.42;102412.28;6161795;23;20059;-69
2022/03/18 13:33:14;;;;;;;7.20;2.33;;;;;;;12.58;38.94;102403.59;6166172;23;20032;-69
2022/03/18 13:35:48;;;;;;;5.53;2.40;;;;;;;12.60;39.50;102404.19;6162525;23;20032;-69
2022/03/18 13:38:16;;;;;;;5.65;2.55;;;;;;;12.56;40.81;102385.44;6137830;23;20011;-70
2022/03/18 13:41:02;;;;;;;5.40;2.03;;;;;;;12.59;40.51;102380.22;6137583;23;20005;-69
2022/03/18 13:43:33;;;;;;;4.30;2.20;;;;;;;12.63;40.75;102381.34;6187098;23;20005;-69
2022/03/18 13:46:13;;;;;;;4.88;2.13;;;;;;;12.60;39.41;102370.72;6162732;23;20147;-70
2022/03/18 13:48:39;;;;;;;4.45;1.98;;;;;;;12.61;40.90;102372.41;6188947;23;20040;-70
2022/03/18 13:51:07;;;;;;;6.50;2.60;;;;;;;12.66;40.99;102371.63;6167963;23;20059;-69
2022/03/18 13:53:34;;;;;;;7.57;2.58;;;;;;;12.70;39.93;102364.41;6166082;23;20001;-69
2022/03/18 13:56:13;;;;;;;5.50;2.40;;;;;;;12.69;40.16;102365.53;6163812;23;20016;-70
2022/03/18 13:58:39;;;;;;;5.97;2.63;;;;;;;12.74;40.36;102354.44;6163381;23;20020;-69
2022/03/18 14:01:12;;;;;;;5.20;2.00;;;;;;;12.74;41.89;102360.84;6163039;23;20075;-70
2022/03/18 14:03:38;;;;;;;11.80;5.72;;;;;;;12.82;41.24;102361.47;6139945;23;20498;-70
2022/03/18 14:06:05;;;;;;;7.78;3.30;;;;;;;12.86;41.18;102349.50;6138505;23;20005;-69
2022/03/18 14:08:31;;;;;;;6.68;2.95;;;;;;;12.90;39.34;102344.28;6138754;23;20087;-70
2022/03/18 14:10:59;;;;;;;5.15;2.70;;;;;;;12.98;39.27;102343.75;6163751;23;20015;-70
2022/03/18 14:13:30;;;;;;;5.60;3.47;;;;;;;12.98;39.64;102329.81;6163997;23;20016;-69
2022/03/18 14:15:55;;;;;;;7.43;2.72;;;;;;;12.96;39.65;102338.47;6165078;23;20326;-69
2022/03/18 14:18:21;;;;;;;5.50;2.20;;;;;;;13.00;40.94;102340.72;6168791;23;20009;-70
2022/03/18 14:20:47;;;;;;;4.80;2.30;;;;;;;13.09;38.93;102336.31;6190895;23;20008;-73
2022/03/18 14:23:28;;;;;;;5.85;2.50;;;;;;;13.06;39.90;102325.69;6190807;23;20338;-77
2022/03/18 14:25:55;;;;;;;4.15;2.22;;;;;;;13.07;38.81;102335.78;6163651;23;20032;-76
2022/03/18 14:28:22;;;;;;;5.70;2.58;;;;;;;13.06;38.88;102329.31;6188544;23;20009;-76
2022/03/18 14:30:47;;;;;;;7.65;2.38;;;;;;;13.05;39.98;102329.59;6188704;23;20005;-76
2022/03/18 14:33:13;;;;;;;3.67;2.28;;;;;;;13.03;39.92;102327.06;6190462;23;20012;-78
2022/03/18 14:35:39;;;;;;;7.05;2.22;;;;;;;13.06;38.45;102303.38;6188951;23;20013;-76
2022/03/18 14:38:04;;;;;;;6.90;2.40;;;;;;;13.11;38.81;102309.84;6190359;23;20029;-76
2022/03/18 14:40:30;;;;;;;3.60;2.20;;;;;;;13.11;37.91;102304.25;6189250;23;20005;-74
2022/03/18 14:42:57;;;;;;;6.15;1.95;;;;;;;13.13;37.40;102306.81;6190581;23;20426;-77
2022/03/18 14:45:23;;;;;;;5.63;2.40;;;;;;;13.08;37.37;102299.22;6193265;23;20005;-78
2022/03/18 14:47:49;;;;;;;8.05;2.35;;;;;;;13.03;38.46;102307.53;6190484;23;20012;-77
2022/03/18 14:50:14;;;;;;;3.85;2.08;;;;;;;12.99;37.29;102298.03;6163490;23;20008;-77
2022/03/18 14:52:40;;;;;;;5.95;2.10;;;;;;;12.97;39.42;102297.47;6189099;23;20012;-77
2022/03/18 14:57:50;;;;;;;6.60;2.30;;;;;;;12.87;37.06;102298.25;6184015;23;20032;-76
2022/03/18 15:00:16;;;;;;;3.80;2.42;;;;;;;12.80;38.13;102289.25;6218536;23;20005;-76
2022/03/18 15:02:42;;;;;;;4.50;2.10;;;;;;;12.82;38.28;102302.94;6193210;23;20139;-76
2022/03/18 15:05:08;;;;;;;4.75;2.35;;;;;;;12.80;37.56;102291.19;6218872;23;20004;-76
2022/03/18 15:07:34;;;;;;;6.05;1.90;;;;;;;12.84;39.21;102286.75;6218601;23;20005;-76
2022/03/18 15:09:59;;;;;;;5.63;2.42;;;;;;;12.85;38.34;102277.31;6218447;23;20564;-77
2022/03/18 15:12:25;;;;;;;6.30;2.15;;;;;;;12.84;38.22;102275.59;6221642;23;20084;-77
2022/03/18 15:14:51;;;;;;;4.93;2.10;;;;;;;12.84;37.80;102275.59;6220277;23;20032;-76
2022/03/18 15:17:19;;;;;;;6.55;2.50;;;;;;;12.89;38.32;102278.44;6194323;23;20314;-76
2022/03/18 15:19:45;;;;;;;4.13;1.95;;;;;;;12.84;38.22;102272.81;6218908;23;20330;-77
2022/03/18 15:22:11;;;;;;;5.30;2.13;;;;;;;12.84;39.04;102273.69;6193554;23;20001;-77
2022/03/18 15:24:37;;;;;;;9.77;2.40;;;;;;;12.83;37.36;102263.63;6219959;23;20036;-78
2022/03/18 15:27:04;;;;;;;4.35;2.35;;;;;;;12.85;37.27;102263.38;6168270;23;20012;-77
2022/03/18 15:29:31;;;;;;;5.57;2.03;;;;;;;12.82;38.51;102272.25;6193113;23;20005;-77
2022/03/18 15:31:56;;;;;;;6.22;2.45;;;;;;;12.82;38.46;102267.53;6218218;23;20009;-77
2022/03/18 15:38:54;;;;;;;;;;;;;;;;;;;;;
2022/03/18 15:46:09;;;;;;;;;;;;;;;;;;;;;
2022/03/18 15:49:09;;;;;;;5.93;2.45;;;;;;;12.78;37.85;102244.06;6082807;23;20006;-78
2022/03/18 15:52:19;;;;;;;4.97;2.30;;;;;;;12.74;37.74;102221.44;6057248;23;20022;-78
2022/03/18 15:55:52;;;;;;;5.47;2.40;;;;;;;12.72;39.36;102232.03;6046628;23;20018;-79
2022/03/18 15:58:45;;;;;;;4.88;2.40;;;;;;;12.72;38.32;102229.22;6026120;23;20479;-78
2022/03/18 16:01:42;;;;;;;5.30;3.08;;;;;;;12.74;37.79;102229.81;6069316;23;20013;-78
2022/03/18 16:04:46;;;;;;;5.55;2.80;;;;;;;12.68;40.47;102233.66;6066154;23;20030;-78
2022/03/18 16:07:47;;;;;;;6.63;3.13;;;;;;;12.67;38.17;102226.41;6078063;23;20022;-79
2022/03/18 16:10:39;;;;;;;7.85;2.75;;;;;;;12.62;38.86;102218.03;6039283;23;20039;-78
2022/03/18 16:13:10;;;;;;;5.35;3.08;;;;;;;12.62;39.24;102223.59;6044116;23;20011;-79
2022/03/18 16:15:38;;;;;;;4.65;2.67;;;;;;;12.61;39.09;102227.47;6068364;23;20022;-79
2022/03/18 16:18:44;;;;;;;8.43;2.88;;;;;;;12.63;39.28;102216.91;6137081;23;20065;-79
2022/03/18 16:21:54;;;;;;;;;;;;;;;;;;;;;
2022/03/18 16:28:52;;;;;;;5.68;2.80;;;;;;;12.49;38.98;102204.53;6206698;22;20383;-80
2022/03/18 16:31:51;;;;;;;4.65;2.42;;;;;;;12.49;37.62;102207.31;6225518;23;20019;-79
2022/03/18 16:38:19;;;;;;;4.03;2.15;;;;;;;12.40;38.11;102200.56;6137504;23;20013;-78
2022/03/18 16:41:37;;;;;;;;;;;;;;;;;;;;;
2022/03/18 16:44:16;;;;;;;;;;;;;;;12.29;38.53;102194.03;6222655;23;20016;-79
2022/03/18 16:49:44;;;;;;;4.97;2.50;;;;;;;12.23;38.37;102192.28;6248376;23;20023;-78
2022/03/18 16:52:27;;;;;;;4.85;2.10;;;;;;;12.20;37.70;102192.81;6196309;23;20020;-79
2022/03/18 16:55:07;;;;;;;3.90;2.50;;;;;;;12.15;38.44;102196.44;6197647;23;20043;-79
2022/03/18 16:57:35;;;;;;;5.18;2.40;;;;;;;12.19;37.86;102196.72;6223860;23;20044;-77
2022/03/18 17:00:46;;;;;;;4.38;2.47;;;;;;;12.14;37.38;102188.31;6226962;23;20020;-79
2022/03/18 17:03:55;;;;;;;4.03;2.25;;;;;;;12.19;36.88;102203.13;6155751;23;20116;-80
2022/03/18 17:06:20;;;;;;;5.45;2.45;;;;;;;12.12;37.57;102202.53;6152834;23;20020;-79
2022/03/18 17:08:46;;;;;;;6.05;2.38;;;;;;;12.07;38.16;102208.88;6156309;23;20017;-73
2022/03/18 17:11:12;;;;;;;5.35;2.88;;;;;;;12.02;38.50;102213.53;6155643;23;20017;-73
2022/03/18 17:13:37;;;;;;;4.40;2.42;;;;;;;11.94;39.25;102216.81;6156113;23;20032;-77
2022/03/18 17:16:03;;;;;;;8.00;2.70;;;;;;;11.96;37.77;102222.97;6156240;23;20368;-77
2022/03/18 17:18:28;;;;;;;6.75;2.55;;;;;;;11.93;38.61;102213.19;6156168;23;20013;-77
2022/03/18 17:20:54;;;;;;;6.25;2.78;;;;;;;11.84;39.06;102212.78;6156278;23;20021;-74
2022/03/18 17:23:20;;;;;;;4.38;2.80;;;;;;;11.80;39.20;102213.56;6158115;23;20009;-75
2022/03/18 17:25:45;;;;;;;5.03;2.78;;;;;;;11.75;39.06;102219.88;6139537;23;20016;-74
2022/03/18 17:28:11;;;;;;;4.68;2.53;;;;;;;11.73;39.14;102210.97;6160862;23;20013;-74
2022/03/18 17:30:36;;;;;;;4.68;3.03;;;;;;;11.66;39.66;102213.13;6159455;23;20020;-73
2022/03/18 17:33:02;;;;;;;3.42;2.50;;;;;;;11.65;39.89;102222.56;6159678;23;20009;-74
2022/03/18 17:35:28;;;;;;;4.25;2.70;;;;;;;11.57;40.26;102214.69;6159433;23;20108;-76
2022/03/18 17:37:54;;;;;;;5.07;2.45;;;;;;;11.50;40.61;102222.38;6169755;23;20012;-75
2022/03/18 17:40:20;;;;;;;4.78;2.95;;;;;;;11.45;41.49;102230.63;6251392;23;20000;-76
2022/03/18 17:42:46;;;;;;;4.60;2.80;;;;;;;11.36;41.87;102211.63;6200510;23;20026;-76
2022/03/18 17:45:12;;;;;;;6.22;2.90;;;;;;;11.31;41.50;102221.84;6225757;23;20016;-75
2022/03/18 17:47:38;;;;;;;6.35;3.20;;;;;;;11.25;41.65;102223.69;6225761;23;20054;-75
2022/03/18 17:50:03;;;;;;;5.57;2.65;;;;;;;11.19;42.10;102210.84;6226979;23;20492;-76
2022/03/18 17:52:29;;;;;;;4.43;2.72;;;;;;;11.11;42.36;102214.06;6256174;23;20015;-75
2022/03/18 17:54:54;;;;;;;7.18;3.10;;;;;;;11.06;42.55;102233.44;6226994;23;20016;-74
2022/03/18 17:57:20;;;;;;;5.60;3.10;;;;;;;11.02;42.76;102219.22;6225417;23;20004;-74
2022/03/18 17:59:49;;;;;;;7.57;3.30;;;;;;;10.91;43.61;102221.00;6195376;23;20044;-75
2022/03/18 18:02:14;;;;;;;5.65;3.20;;;;;;;10.84;43.41;102219.50;6146442;23;20100;-75
2022/03/18 18:04:43;;;;;;;5.50;2.78;;;;;;;10.77;43.98;102229.94;6171157;23;20013;-71
2022/03/18 18:07:10;;;;;;;9.40;3.28;;;;;;;10.67;44.17;102225.91;6172150;23;20013;-71
2022/03/18 18:09:35;;;;;;;5.97;3.20;;;;;;;10.56;44.19;102224.06;6220841;23;20032;-71
2022/03/18 18:12:02;;;;;;;4.32;3.25;;;;;;;10.47;44.83;102223.66;6220558;23;20019;-71
2022/03/18 18:14:28;;;;;;;9.50;3.90;;;;;;;10.40;44.96;102233.22;6197127;23;20005;-71
2022/03/18 18:16:53;;;;;;;6.88;3.70;;;;;;;10.28;45.52;102231.38;6172436;23;20004;-71
2022/03/18 18:22:03;;;;;;;5.80;3.97;;;;;;;10.08;45.80;102230.94;6198972;23;20020;-71
2022/03/18 18:24:32;;;;;;;5.00;3.33;;;;;;;9.98;46.30;102228.81;6171061;23;20024;-71
2022/03/18 18:26:58;;;;;;;8.13;3.67;;;;;;;9.92;46.20;102229.81;6220588;23;20393;-72
2022/03/18 18:29:24;;;;;;;6.95;4.07;;;;;;;9.83;46.54;102245.16;6146373;23;20009;-70
2022/03/18 18:31:49;;;;;;;7.10;4.10;;;;;;;9.77;46.88;102244.22;6245697;23;20074;-70
2022/03/18 18:34:17;;;;;;;9.77;4.25;;;;;;;9.69;46.97;102250.16;6170058;23;20011;-70